Hauptseite
METAR-TAF:

METAR-TAF

Flughäfen :

Mitiga International Airport

Tripolis, Libyen

Breite: 32-54N, Länge: 13-17E, Höhe: 11 m

METAR: fehlend

Zeit: 07:22 (05:22 UTC)

Prognose

Neuester Wetterbericht von vor 6 Stunden und 22 Minuten, um 23:00 UTC
Gültige Prognose vom 12 um 00 UTC bis 12 um 24 UTC
Wind 15 kt aus West/Südwest
Sichtweite: 8000 m
Aufgelockert bewölkt in der Höhe von 3000 ft
Aufgelockert bewölkt in der Höhe von 8000 ft
Wahrscheinlichkeit 30% :
Zeitweise
vom 12 um 00 UTC bis 12 um 06 UTC
Sichtweite: 5000 m
Leicht bewölkt in der Höhe von 2000 ft, Towering cumulus.
Durchbrochene Bewölkung in der Höhe von 3000 ft
Durchbrochene Bewölkung in der Höhe von 8000 ft
Regenschauer
Übergehend zu
vom 12 um 08 UTC bis 12 um 10 UTC
Wind 15 kt aus West/Südwest, Böen bis zu 35 kt

TAF: HLLM 112300Z 1200/1224 24015KT 8000 SCT030 SCT080 PROB30 TEMPO 1200/1206 5000 SHRA FEW020TCU BKN030 BKN080 BECMG 1208/1210 24015G35KT

Wetterbeobachtungen und Prognosen von mehr als 4000 Flughäfen (METAR und TAF Bericht).

Die verfügbaren Stationen werden durch gelbe und rote Markierungen auf der Karte dargestellt.

Führen Sie die Maus auf sie, um den Namen der Station zu sehen.

Darauf klicken, um die Beobachtung von Wetterbeobachtungen und Prognosen zu sehen.

Um die Karte zu ändern : klicken Sie auf den grünen Tasten mit einem schwarzen Kreuz Zum Vergrößern, auf den grünen Button mit einem Gedankenstrich zu verkleinern, oder auf die grünen Pfeile für benachbarte Karten.


METAR-TAF: